createdAt,value
2022-09-09T00:02:25.690Z,0.80
2022-09-09T00:05:11.082Z,0.80
2022-09-09T00:07:47.017Z,0.80
2022-09-09T00:10:24.014Z,0.80
2022-09-09T00:13:12.810Z,0.70
2022-09-09T00:15:55.560Z,0.70
2022-09-09T00:18:26.454Z,0.70
2022-09-09T00:21:07.579Z,0.60
2022-09-09T00:23:40.402Z,0.60
2022-09-09T00:26:40.296Z,0.50
2022-09-09T00:29:39.712Z,0.50
2022-09-09T00:32:20.279Z,0.50
2022-09-09T00:35:17.140Z,0.50
2022-09-09T00:37:48.431Z,0.50
2022-09-09T00:40:36.447Z,0.50
2022-09-09T00:43:38.321Z,0.50
2022-09-09T00:46:43.109Z,0.50
2022-09-09T00:49:33.772Z,0.50
2022-09-09T00:52:21.517Z,0.50
2022-09-09T00:55:16.451Z,0.40
2022-09-09T00:57:43.898Z,0.40
2022-09-09T01:00:20.041Z,0.40
2022-09-09T01:03:11.672Z,0.40
2022-09-09T01:06:00.269Z,0.40
2022-09-09T01:09:05.039Z,0.30
2022-09-09T01:11:51.098Z,0.30
2022-09-09T01:14:41.276Z,0.30
2022-09-09T01:17:20.728Z,0.20
2022-09-09T01:20:28.492Z,0.20
2022-09-09T01:23:05.912Z,0.20
2022-09-09T01:25:45.078Z,0.10
2022-09-09T01:28:19.666Z,0.10
2022-09-09T01:30:47.066Z,0.10
2022-09-09T01:33:19.116Z,0.00
2022-09-09T01:36:17.220Z,0.00
2022-09-09T01:38:44.445Z,0.00
2022-09-09T01:41:11.682Z,-0.10
2022-09-09T01:43:39.380Z,-0.10
2022-09-09T01:46:06.970Z,-0.10
2022-09-09T01:48:35.043Z,-0.10
2022-09-09T01:51:02.510Z,-0.10
2022-09-09T01:53:29.918Z,-0.20
2022-09-09T01:56:08.558Z,-0.20
2022-09-09T01:59:04.540Z,-0.20
2022-09-09T02:01:38.447Z,-0.20
2022-09-09T02:04:34.316Z,-0.20
2022-09-09T02:07:01.787Z,-0.20
2022-09-09T02:09:31.755Z,-0.20
2022-09-09T02:12:13.230Z,-0.20
2022-09-09T02:14:50.580Z,-0.30
2022-09-09T02:17:24.059Z,-0.30
2022-09-09T02:19:57.771Z,-0.30
2022-09-09T02:22:28.686Z,-0.30
2022-09-09T02:25:00.742Z,-0.30
2022-09-09T02:27:28.740Z,-0.30
2022-09-09T02:29:58.014Z,-0.30
2022-09-09T02:32:25.750Z,-0.40
2022-09-09T02:35:01.690Z,-0.40
2022-09-09T02:37:36.423Z,-0.40
2022-09-09T02:40:08.717Z,-0.50
2022-09-09T02:42:46.872Z,-0.50
2022-09-09T02:45:19.054Z,-0.50
2022-09-09T02:48:00.297Z,-0.50
2022-09-09T02:50:35.306Z,-0.50
2022-09-09T02:53:24.065Z,-0.60
2022-09-09T02:56:01.591Z,-0.60
2022-09-09T02:58:29.140Z,-0.60
2022-09-09T03:00:59.266Z,-0.60
2022-09-09T03:03:26.671Z,-0.60
2022-09-09T03:05:53.876Z,-0.60
2022-09-09T03:08:21.124Z,-0.60
2022-09-09T03:10:48.662Z,-0.60
2022-09-09T03:13:16.513Z,-0.60
2022-09-09T03:15:43.714Z,-0.60
2022-09-09T03:18:10.893Z,-0.60
2022-09-09T03:20:38.207Z,-0.60
2022-09-09T03:23:05.387Z,-0.60
2022-09-09T03:25:33.267Z,-0.60
2022-09-09T03:28:00.635Z,-0.60
2022-09-09T03:30:29.181Z,-0.60
2022-09-09T03:32:56.519Z,-0.60
2022-09-09T03:35:23.970Z,-0.60
2022-09-09T03:37:51.122Z,-0.70
2022-09-09T03:40:19.479Z,-0.70
2022-09-09T03:42:46.817Z,-0.70
2022-09-09T03:45:14.017Z,-0.70
2022-09-09T03:47:41.597Z,-0.70
2022-09-09T03:50:11.616Z,-0.80
2022-09-09T03:52:40.440Z,-0.80
2022-09-09T03:55:08.410Z,-0.80
2022-09-09T03:57:37.152Z,-0.80
2022-09-09T04:00:06.503Z,-0.80
2022-09-09T04:02:33.934Z,-0.80
2022-09-09T04:05:01.152Z,-0.80
2022-09-09T04:07:29.342Z,-0.80
2022-09-09T04:09:56.600Z,-0.80
2022-09-09T04:12:23.895Z,-0.90
2022-09-09T04:14:51.009Z,-0.80
2022-09-09T04:17:18.550Z,-0.80
2022-09-09T04:19:45.808Z,-0.80
2022-09-09T04:22:13.076Z,-0.80
2022-09-09T04:24:40.280Z,-0.70
2022-09-09T04:27:07.449Z,-0.70
2022-09-09T04:29:34.953Z,-0.70
2022-09-09T04:32:02.386Z,-0.70
2022-09-09T04:34:29.759Z,-0.60
2022-09-09T04:36:58.167Z,-0.50
2022-09-09T04:39:25.905Z,-0.50
2022-09-09T04:41:53.121Z,-0.50
2022-09-09T04:44:20.335Z,-0.40
2022-09-09T04:46:47.742Z,-0.40
2022-09-09T04:49:15.399Z,-0.30
2022-09-09T04:51:42.640Z,-0.30
2022-09-09T04:54:09.906Z,-0.20
2022-09-09T04:56:37.543Z,-0.10
2022-09-09T04:59:04.789Z,-0.10
2022-09-09T05:01:33.210Z,0.00
2022-09-09T05:04:00.590Z,0.20
2022-09-09T05:06:27.862Z,0.30
2022-09-09T05:08:55.084Z,0.50
2022-09-09T05:11:25.464Z,0.60
2022-09-09T05:13:53.463Z,0.80
2022-09-09T05:16:22.304Z,0.90
2022-09-09T05:18:51.741Z,1.20
2022-09-09T05:21:20.714Z,1.30
2022-09-09T05:23:48.146Z,1.60
2022-09-09T05:26:18.145Z,1.70
2022-09-09T05:28:46.179Z,1.90
2022-09-09T05:31:15.152Z,2.10
2022-09-09T05:33:44.573Z,2.30
2022-09-09T05:36:17.271Z,2.50
2022-09-09T05:38:45.324Z,2.60
2022-09-09T05:41:13.493Z,2.80
2022-09-09T05:43:40.725Z,2.90
2022-09-09T05:46:10.224Z,3.10
2022-09-09T05:48:43.455Z,3.30
2022-09-09T05:51:16.835Z,3.40
2022-09-09T05:53:45.684Z,3.50
2022-09-09T05:56:21.443Z,3.70
2022-09-09T05:58:48.844Z,3.70
2022-09-09T06:01:18.546Z,3.90
2022-09-09T06:03:47.601Z,4.10
2022-09-09T06:06:23.317Z,4.20
2022-09-09T06:08:53.328Z,4.40
2022-09-09T06:11:22.168Z,4.60
2022-09-09T06:13:52.509Z,4.70
2022-09-09T06:16:21.024Z,4.90
2022-09-09T06:18:50.140Z,5.00
2022-09-09T06:21:22.168Z,5.10
2022-09-09T06:23:49.720Z,5.30
2022-09-09T06:26:19.399Z,5.50
2022-09-09T06:28:48.838Z,5.60
2022-09-09T06:31:29.906Z,5.80
2022-09-09T06:33:58.579Z,5.90
2022-09-09T06:36:27.241Z,6.10
2022-09-09T06:38:55.259Z,6.20
2022-09-09T06:41:24.378Z,6.40
2022-09-09T06:43:51.638Z,6.50
2022-09-09T06:46:21.175Z,6.70
2022-09-09T06:48:49.283Z,6.90
2022-09-09T06:51:20.239Z,7.10
2022-09-09T06:53:48.298Z,7.30
2022-09-09T06:56:18.168Z,7.50
2022-09-09T06:58:46.285Z,7.70
2022-09-09T07:01:17.075Z,7.80
2022-09-09T07:03:48.062Z,8.00
2022-09-09T07:06:20.588Z,8.20
2022-09-09T07:08:56.435Z,8.40
2022-09-09T07:11:27.035Z,8.60
2022-09-09T07:13:54.627Z,8.80
2022-09-09T07:16:26.732Z,9.00
2022-09-09T07:18:57.889Z,9.10
2022-09-09T07:21:27.581Z,9.20
2022-09-09T07:23:55.479Z,9.40
2022-09-09T07:26:27.945Z,9.50
2022-09-09T07:28:57.333Z,9.70
2022-09-09T07:31:27.869Z,9.80
2022-09-09T07:33:54.984Z,9.90
2022-09-09T07:36:32.561Z,10.10
2022-09-09T07:39:06.173Z,10.20
2022-09-09T07:41:37.318Z,10.30
2022-09-09T07:44:13.554Z,10.40
2022-09-09T07:46:42.289Z,10.60
2022-09-09T07:49:11.202Z,10.70
2022-09-09T07:51:42.029Z,10.80
2022-09-09T07:54:12.208Z,10.90
2022-09-09T07:56:45.086Z,11.00
2022-09-09T07:59:13.291Z,11.00
2022-09-09T08:01:55.779Z,10.90
2022-09-09T08:04:25.094Z,10.80
2022-09-09T08:06:58.440Z,10.90
2022-09-09T08:09:28.165Z,10.90
2022-09-09T08:11:57.565Z,10.90
2022-09-09T08:14:25.350Z,11.10
2022-09-09T08:16:55.251Z,11.30
2022-09-09T08:19:22.807Z,11.50
2022-09-09T08:21:50.275Z,11.50
2022-09-09T08:24:17.610Z,11.50
2022-09-09T08:26:47.647Z,11.50
2022-09-09T08:29:15.182Z,11.60
2022-09-09T08:31:48.108Z,11.80
2022-09-09T08:34:16.199Z,12.00
2022-09-09T08:36:47.536Z,12.20
2022-09-09T08:39:17.292Z,12.40
2022-09-09T08:42:06.225Z,12.60
2022-09-09T08:44:39.062Z,12.80
2022-09-09T08:47:30.616Z,12.90
2022-09-09T08:50:25.948Z,13.10
2022-09-09T08:52:56.211Z,13.20
2022-09-09T08:55:42.860Z,13.30
2022-09-09T08:58:32.541Z,13.40
2022-09-09T09:01:24.472Z,13.40
2022-09-09T09:04:23.016Z,13.40
2022-09-09T09:07:22.346Z,13.50
2022-09-09T09:10:41.858Z,13.60
2022-09-09T09:13:47.032Z,13.70
2022-09-09T09:16:25.952Z,13.60
2022-09-09T09:18:55.593Z,13.60
2022-09-09T09:21:45.600Z,13.70
2022-09-09T09:24:23.326Z,13.80
2022-09-09T09:26:50.956Z,13.80
2022-09-09T09:29:21.015Z,13.90
2022-09-09T09:31:55.998Z,14.00
2022-09-09T09:34:24.419Z,14.00
2022-09-09T09:36:57.876Z,14.20
2022-09-09T09:42:17.149Z,14.30
2022-09-09T09:44:46.212Z,14.30
2022-09-09T09:47:16.864Z,14.40
2022-09-09T09:49:57.589Z,14.50
2022-09-09T09:52:25.693Z,14.40
2022-09-09T09:54:54.815Z,14.40
2022-09-09T09:57:30.364Z,14.40
2022-09-09T10:00:22.271Z,14.60
2022-09-09T10:02:50.405Z,14.70
2022-09-09T10:05:26.485Z,14.90
2022-09-09T10:08:21.821Z,15.10
2022-09-09T10:11:11.061Z,15.20
2022-09-09T10:13:56.759Z,15.30
2022-09-09T10:16:50.399Z,15.30
2022-09-09T10:33:43.960Z,15.40
2022-09-09T10:36:19.501Z,15.60
2022-09-09T10:38:47.862Z,15.70
2022-09-09T10:41:17.813Z,15.70
2022-09-09T10:44:22.997Z,15.80
2022-09-09T10:47:14.777Z,15.80
2022-09-09T10:49:57.099Z,15.80
2022-09-09T10:52:30.249Z,15.60
2022-09-09T10:55:19.696Z,15.60
2022-09-09T10:57:50.104Z,15.80
2022-09-09T11:00:21.879Z,15.90
2022-09-09T11:03:03.960Z,16.00
2022-09-09T11:05:46.677Z,16.10
2022-09-09T11:08:20.560Z,16.20
2022-09-09T11:10:50.085Z,16.30
2022-09-09T11:13:46.721Z,16.20
2022-09-09T11:16:39.771Z,16.30
2022-09-09T11:19:13.258Z,16.40
2022-09-09T11:21:47.214Z,16.40
2022-09-09T11:24:43.729Z,16.50
2022-09-09T11:27:52.221Z,16.60
2022-09-09T11:30:55.567Z,16.70
2022-09-09T11:33:54.660Z,16.70
2022-09-09T11:36:39.457Z,16.90
2022-09-09T11:39:38.268Z,17.10
2022-09-09T11:42:25.759Z,17.10
2022-09-09T11:44:54.758Z,16.90
2022-09-09T11:47:32.456Z,16.80
2022-09-09T11:50:33.615Z,16.60
2022-09-09T11:53:18.108Z,16.60
2022-09-09T11:55:45.417Z,16.70
2022-09-09T11:58:12.581Z,16.70
2022-09-09T12:00:45.518Z,16.70
2022-09-09T12:03:54.103Z,16.80
2022-09-09T12:06:34.718Z,16.90
2022-09-09T12:09:24.619Z,17.00
2022-09-09T12:11:52.188Z,17.00
2022-09-09T12:14:39.051Z,16.90
2022-09-09T12:17:23.761Z,16.90
2022-09-09T12:20:12.413Z,16.70
2022-09-09T12:22:48.203Z,16.70
2022-09-09T12:25:48.783Z,16.70
2022-09-09T12:28:44.264Z,16.80
2022-09-09T12:31:23.362Z,17.00
2022-09-09T12:33:50.637Z,17.20
2022-09-09T12:36:23.073Z,17.20
2022-09-09T12:38:52.661Z,17.30
2022-09-09T12:41:25.608Z,17.30
2022-09-09T12:44:07.046Z,17.50
2022-09-09T12:46:46.297Z,17.50
2022-09-09T12:49:36.749Z,17.50
2022-09-09T12:52:32.789Z,17.40
2022-09-09T12:55:02.579Z,17.50
2022-09-09T12:57:35.965Z,17.70
2022-09-09T13:00:24.267Z,17.50
2022-09-09T13:02:57.374Z,17.60
2022-09-09T13:05:26.445Z,17.70
2022-09-09T13:08:03.646Z,17.60
2022-09-09T13:10:49.869Z,17.60
2022-09-09T13:13:37.946Z,17.60
2022-09-09T13:16:09.459Z,17.40
2022-09-09T13:18:40.824Z,17.40
2022-09-09T13:21:08.641Z,17.40
2022-09-09T13:23:37.986Z,17.40
2022-09-09T13:26:27.060Z,17.30
2022-09-09T13:28:56.093Z,17.20
2022-09-09T13:31:31.247Z,17.20
2022-09-09T13:33:58.809Z,17.30
2022-09-09T13:36:32.049Z,17.70
2022-09-09T13:39:01.322Z,18.00
2022-09-09T13:41:36.518Z,18.20
2022-09-09T13:44:07.646Z,18.00
2022-09-09T13:46:41.805Z,18.00
2022-09-09T13:49:12.353Z,18.20
2022-09-09T13:51:39.322Z,18.20
2022-09-09T13:54:08.146Z,18.30
2022-09-09T13:56:36.446Z,18.20
2022-09-09T13:59:10.862Z,18.30
2022-09-09T14:01:38.825Z,18.60
2022-09-09T14:04:09.764Z,18.90
2022-09-09T14:06:40.437Z,19.20
2022-09-09T14:09:08.858Z,19.00
2022-09-09T14:11:36.169Z,18.70
2022-09-09T14:14:03.347Z,18.30
2022-09-09T14:16:31.209Z,17.80
2022-09-09T14:18:58.591Z,17.30
2022-09-09T14:21:26.777Z,16.80
2022-09-09T14:23:54.511Z,16.30
2022-09-09T14:26:22.823Z,15.90
2022-09-09T14:28:57.972Z,15.60
2022-09-09T14:31:26.454Z,15.50
2022-09-09T14:33:54.341Z,15.30
2022-09-09T14:36:21.993Z,15.20
2022-09-09T14:38:49.476Z,15.10
2022-09-09T14:41:19.231Z,15.10
2022-09-09T14:43:47.196Z,14.90
2022-09-09T14:46:17.326Z,14.90
2022-09-09T14:48:49.845Z,14.80
2022-09-09T14:51:23.402Z,14.70
2022-09-09T14:53:54.309Z,14.60
2022-09-09T14:56:25.308Z,14.40
2022-09-09T14:58:55.880Z,14.30
2022-09-09T15:01:23.593Z,14.30
2022-09-09T15:03:56.329Z,14.20
2022-09-09T15:06:25.061Z,14.20
2022-09-09T15:08:54.256Z,14.10
2022-09-09T15:11:21.972Z,14.10
2022-09-09T15:13:53.259Z,14.10
2022-09-09T15:16:22.171Z,14.10
2022-09-09T15:18:53.106Z,14.00
2022-09-09T15:21:22.566Z,13.90
2022-09-09T15:23:50.275Z,13.80
2022-09-09T15:26:18.425Z,13.70
2022-09-09T15:28:48.437Z,13.60
2022-09-09T15:31:21.231Z,13.50
2022-09-09T15:33:49.934Z,13.30
2022-09-09T15:36:19.930Z,13.30
2022-09-09T15:38:47.232Z,13.20
2022-09-09T15:41:15.401Z,13.20
2022-09-09T15:43:47.293Z,13.10
2022-09-09T15:46:40.161Z,13.10
2022-09-09T15:49:16.121Z,13.10
2022-09-09T15:51:46.357Z,13.00
2022-09-09T15:54:18.034Z,12.90
2022-09-09T15:56:46.707Z,13.00
2022-09-09T15:59:14.776Z,12.90
2022-09-09T16:01:43.440Z,13.00
2022-09-09T16:04:10.927Z,13.00
2022-09-09T16:06:38.226Z,13.00
2022-09-09T16:09:07.191Z,12.90
2022-09-09T16:11:37.389Z,12.90
2022-09-09T16:14:05.147Z,12.80
2022-09-09T16:16:32.789Z,12.70
2022-09-09T16:19:07.215Z,12.50
2022-09-09T16:21:37.069Z,12.40
2022-09-09T16:24:05.294Z,12.20
2022-09-09T16:26:35.133Z,12.10
2022-09-09T16:29:03.472Z,11.90
2022-09-09T16:31:33.304Z,11.70
2022-09-09T16:34:00.997Z,11.60
2022-09-09T16:36:33.012Z,11.40
2022-09-09T16:39:02.001Z,11.20
2022-09-09T16:41:30.873Z,11.10
2022-09-09T16:44:09.351Z,10.90
2022-09-09T16:46:42.858Z,10.70
2022-09-09T16:49:12.615Z,10.50
2022-09-09T16:51:43.049Z,10.40
2022-09-09T16:54:11.249Z,10.30
2022-09-09T16:56:42.790Z,10.10
2022-09-09T16:59:13.249Z,10.00
2022-09-09T17:01:42.847Z,9.80
2022-09-09T17:04:14.312Z,9.70
2022-09-09T17:06:42.554Z,9.60
2022-09-09T17:09:12.094Z,9.50
2022-09-09T17:11:42.499Z,9.40
2022-09-09T17:14:12.936Z,9.20
2022-09-09T17:16:41.146Z,9.10
2022-09-09T17:19:10.036Z,9.00
2022-09-09T17:21:49.643Z,8.90
2022-09-09T17:24:22.947Z,8.80
2022-09-09T17:26:50.375Z,8.70
2022-09-09T17:29:18.051Z,8.60
2022-09-09T17:31:45.405Z,8.50
2022-09-09T17:34:12.569Z,8.50
2022-09-09T17:36:40.233Z,8.30
2022-09-09T17:39:07.976Z,8.20
2022-09-09T17:41:37.950Z,8.10
2022-09-09T17:46:44.308Z,8.00
2022-09-09T17:49:14.097Z,7.90
2022-09-09T17:51:43.057Z,7.80
2022-09-09T17:54:16.082Z,7.80
2022-09-09T17:56:43.939Z,7.70
2022-09-09T17:59:14.151Z,7.70
2022-09-09T18:01:45.143Z,7.60
2022-09-09T18:04:16.490Z,7.60
2022-09-09T18:06:46.844Z,7.50
2022-09-09T18:09:17.708Z,7.50
2022-09-09T18:11:47.435Z,7.40
2022-09-09T18:14:18.241Z,7.40
2022-09-09T18:16:45.624Z,7.30
2022-09-09T18:19:15.390Z,7.30
2022-09-09T18:21:44.743Z,7.20
2022-09-09T18:24:13.266Z,7.20
2022-09-09T18:26:41.953Z,7.10
2022-09-09T18:29:13.028Z,7.10
2022-09-09T18:31:42.601Z,7.00
2022-09-09T18:34:13.388Z,6.90
2022-09-09T18:36:47.148Z,6.80
2022-09-09T18:39:17.746Z,6.80
2022-09-09T18:41:45.887Z,6.70
2022-09-09T18:44:19.465Z,6.60
2022-09-09T18:46:47.569Z,6.60
2022-09-09T18:49:15.494Z,6.50
2022-09-09T18:51:44.478Z,6.40
2022-09-09T18:54:16.018Z,6.40
2022-09-09T18:56:44.478Z,6.30
2022-09-09T18:59:14.576Z,6.20
2022-09-09T19:01:42.607Z,6.20
2022-09-09T19:04:10.626Z,6.10
2022-09-09T19:06:41.436Z,6.00
2022-09-09T19:09:13.454Z,6.00
2022-09-09T19:11:41.428Z,5.90
2022-09-09T19:14:12.338Z,5.90
2022-09-09T19:16:40.850Z,5.80
2022-09-09T19:19:14.596Z,5.70
2022-09-09T19:21:42.426Z,5.70
2022-09-09T19:24:21.433Z,5.70
2022-09-09T19:26:52.064Z,5.70
2022-09-09T19:29:23.254Z,5.60
2022-09-09T19:32:29.349Z,5.60
2022-09-09T19:34:39.625Z,5.60
2022-09-09T19:37:07.222Z,5.50
2022-09-09T19:39:34.700Z,5.50
2022-09-09T19:42:02.192Z,5.40
2022-09-09T19:44:29.664Z,5.40
2022-09-09T19:46:57.510Z,5.30
2022-09-09T19:49:25.477Z,5.30
2022-09-09T19:51:52.838Z,5.30
2022-09-09T19:54:20.044Z,5.20
2022-09-09T19:56:47.255Z,5.20
2022-09-09T19:59:15.660Z,5.20
2022-09-09T20:01:45.007Z,5.20
2022-09-09T20:04:14.592Z,5.20
2022-09-09T20:06:44.392Z,5.10
2022-09-09T20:09:14.874Z,5.10
2022-09-09T20:11:42.361Z,5.00
2022-09-09T20:14:10.704Z,5.00
2022-09-09T20:16:38.573Z,5.00
2022-09-09T20:19:08.221Z,4.90
2022-09-09T20:21:46.509Z,4.90
2022-09-09T20:24:15.793Z,4.90
2022-09-09T20:26:43.144Z,4.80
2022-09-09T20:29:16.193Z,4.70
2022-09-09T20:31:45.352Z,4.70
2022-09-09T20:34:14.810Z,4.60
2022-09-09T20:36:42.681Z,4.50
2022-09-09T20:39:15.529Z,4.50
2022-09-09T20:41:44.605Z,4.50
2022-09-09T20:44:16.264Z,4.40
2022-09-09T20:46:48.715Z,4.40
2022-09-09T20:49:18.101Z,4.40
2022-09-09T20:51:46.565Z,4.40
2022-09-09T20:54:16.941Z,4.30
2022-09-09T20:56:45.928Z,4.30
2022-09-09T20:59:16.029Z,4.30
2022-09-09T21:01:44.570Z,4.30
2022-09-09T21:04:12.670Z,4.30
2022-09-09T21:06:40.163Z,4.20
2022-09-09T21:09:07.676Z,4.20
2022-09-09T21:11:35.322Z,4.20
2022-09-09T21:14:03.984Z,4.20
2022-09-09T21:16:31.724Z,4.20
2022-09-09T21:19:02.242Z,4.10
2022-09-09T21:21:29.384Z,4.10
2022-09-09T21:23:59.195Z,4.00
2022-09-09T21:26:26.592Z,4.00
2022-09-09T21:28:55.110Z,4.00
2022-09-09T21:31:28.160Z,4.00
2022-09-09T21:33:57.488Z,4.00
2022-09-09T21:36:25.624Z,4.00
2022-09-09T21:38:52.849Z,3.90
2022-09-09T21:41:20.062Z,3.90
2022-09-09T21:43:52.248Z,3.90
2022-09-09T21:46:19.461Z,3.80
2022-09-09T21:48:46.745Z,3.80
2022-09-09T21:51:16.346Z,3.70
2022-09-09T21:53:43.867Z,3.70
2022-09-09T21:56:14.239Z,3.60
2022-09-09T21:58:42.854Z,3.60
2022-09-09T22:01:15.041Z,3.50
2022-09-09T22:03:42.990Z,3.50
2022-09-09T22:06:14.125Z,3.40
2022-09-09T22:08:41.535Z,3.40
2022-09-09T22:11:18.764Z,3.30
2022-09-09T22:13:46.292Z,3.30
2022-09-09T22:16:17.041Z,3.20
2022-09-09T22:18:45.103Z,3.20
2022-09-09T22:21:17.257Z,3.10
2022-09-09T22:23:46.517Z,3.10
2022-09-09T22:26:13.687Z,3.00
2022-09-09T22:28:40.875Z,3.00
2022-09-09T22:31:08.086Z,2.90
2022-09-09T22:33:36.188Z,2.90
2022-09-09T22:36:03.927Z,2.90
2022-09-09T22:38:34.946Z,2.80
2022-09-09T22:41:03.221Z,2.80
2022-09-09T22:43:33.711Z,2.80
2022-09-09T22:46:02.653Z,2.80
2022-09-09T22:48:34.490Z,2.80
2022-09-09T22:51:05.625Z,2.80
2022-09-09T22:53:34.196Z,2.80
2022-09-09T22:56:03.680Z,2.80
2022-09-09T22:58:33.417Z,2.70
2022-09-09T23:01:01.349Z,2.70
2022-09-09T23:03:31.158Z,2.70
2022-09-09T23:06:00.872Z,2.70
2022-09-09T23:08:34.116Z,2.70
2022-09-09T23:11:05.368Z,2.60
2022-09-09T23:13:33.317Z,2.60
2022-09-09T23:16:04.206Z,2.60
2022-09-09T23:18:31.501Z,2.50
2022-09-09T23:21:00.861Z,2.60
2022-09-09T23:23:28.598Z,2.50
2022-09-09T23:25:55.983Z,2.50
2022-09-09T23:28:23.271Z,2.50
2022-09-09T23:30:51.028Z,2.50
2022-09-09T23:33:18.227Z,2.40
2022-09-09T23:35:45.453Z,2.40
2022-09-09T23:38:12.615Z,2.40
2022-09-09T23:40:40.046Z,2.30
2022-09-09T23:43:07.385Z,2.30
2022-09-09T23:45:34.704Z,2.30
2022-09-09T23:48:01.914Z,2.30
2022-09-09T23:50:29.092Z,2.30
2022-09-09T23:52:56.674Z,2.30
2022-09-09T23:55:23.969Z,2.30
2022-09-09T23:57:51.198Z,2.30
